createdAt,value
2022-11-27T00:08:29.606Z,7.17
2022-11-27T00:18:34.002Z,7.10
2022-11-27T00:28:39.564Z,7.39
2022-11-27T00:38:43.894Z,7.14
2022-11-27T00:48:49.103Z,7.23
2022-11-27T00:58:53.436Z,7.11
2022-11-27T01:08:58.694Z,7.04
2022-11-27T01:19:03.690Z,7.16
2022-11-27T01:29:08.893Z,7.06
2022-11-27T01:39:17.612Z,6.95
2022-11-27T01:49:32.262Z,6.86
2022-11-27T01:59:36.791Z,6.75
2022-11-27T02:09:42.256Z,6.55
2022-11-27T02:20:05.781Z,6.37
2022-11-27T02:30:11.753Z,6.15
2022-11-27T02:40:22.120Z,5.95
2022-11-27T02:50:28.693Z,5.63
2022-11-27T03:00:33.676Z,5.39
2022-11-27T03:10:47.241Z,5.03
2022-11-27T03:20:58.726Z,4.78
2022-11-27T03:31:03.738Z,4.72
2022-11-27T03:41:14.641Z,4.44
2022-11-27T03:51:28.493Z,4.28
2022-11-27T04:01:32.905Z,4.00
2022-11-27T04:11:38.332Z,3.88
2022-11-27T04:21:42.075Z,3.80
2022-11-27T04:31:47.065Z,3.70
2022-11-27T04:41:51.024Z,3.58
2022-11-27T04:51:56.054Z,3.47
2022-11-27T05:01:59.915Z,3.25
2022-11-27T05:12:06.209Z,3.27
2022-11-27T05:22:10.229Z,2.85
2022-11-27T05:32:15.302Z,2.83
2022-11-27T05:42:18.949Z,2.75
2022-11-27T05:52:23.968Z,2.66
2022-11-27T06:02:29.652Z,2.79
2022-11-27T06:12:34.914Z,2.70
2022-11-27T06:22:38.577Z,3.00
2022-11-27T06:32:43.602Z,3.01
2022-11-27T06:42:47.289Z,2.99
2022-11-27T06:52:52.311Z,2.99
2022-11-27T07:02:56.139Z,2.96
2022-11-27T07:13:01.357Z,3.05
2022-11-27T07:23:05.056Z,3.08
2022-11-27T07:33:10.044Z,3.12
2022-11-27T07:43:13.783Z,3.30
2022-11-27T07:53:18.757Z,3.35
2022-11-27T08:03:22.402Z,3.41
2022-11-27T08:13:27.392Z,3.50
2022-11-27T08:23:31.126Z,3.94
2022-11-27T08:33:36.532Z,4.37
2022-11-27T08:43:40.241Z,4.82
2022-11-27T08:53:45.730Z,5.17
2022-11-27T09:03:50.249Z,5.52
2022-11-27T09:13:56.305Z,5.56
2022-11-27T09:24:02.754Z,5.95
2022-11-27T09:34:07.758Z,6.13
2022-11-27T09:44:33.836Z,6.19
2022-11-27T09:54:48.085Z,6.70
2022-11-27T10:05:13.296Z,6.88
2022-11-27T10:15:30.947Z,6.98
2022-11-27T10:25:40.972Z,7.36
2022-11-27T10:35:49.687Z,7.30
2022-11-27T10:45:55.966Z,7.62
2022-11-27T10:56:27.715Z,8.05
2022-11-27T11:06:43.847Z,8.22
2022-11-27T11:16:49.449Z,8.23
2022-11-27T11:26:56.977Z,8.56
2022-11-27T11:37:06.590Z,8.46
2022-11-27T11:47:19.181Z,8.51
2022-11-27T11:58:12.719Z,8.74
2022-11-27T12:08:38.737Z,8.96
2022-11-27T12:19:05.547Z,9.12
2022-11-27T12:29:40.739Z,9.22
2022-11-27T12:40:02.123Z,9.56
2022-11-27T12:50:14.244Z,9.48
2022-11-27T13:00:21.970Z,9.30
2022-11-27T13:10:32.518Z,9.55
2022-11-27T13:20:41.431Z,9.77
2022-11-27T13:30:45.348Z,9.63
2022-11-27T13:40:53.896Z,9.31
2022-11-27T13:50:59.566Z,9.18
2022-11-27T14:01:21.416Z,9.07
2022-11-27T14:11:40.027Z,9.01
2022-11-27T14:21:45.144Z,8.98
2022-11-27T14:31:58.175Z,8.89
2022-11-27T14:42:06.086Z,8.66
2022-11-27T14:52:16.544Z,8.37
2022-11-27T15:02:27.563Z,8.40
2022-11-27T15:12:35.665Z,8.13
2022-11-27T15:22:40.962Z,7.94
2022-11-27T15:32:51.606Z,8.03
2022-11-27T15:42:57.016Z,7.88
2022-11-27T15:53:01.476Z,7.68
2022-11-27T16:03:06.661Z,7.65
2022-11-27T16:13:11.043Z,7.60
2022-11-27T16:23:16.493Z,7.32
2022-11-27T16:33:21.332Z,7.18
2022-11-27T16:43:26.450Z,7.14
2022-11-27T16:53:30.159Z,7.00
2022-11-27T17:03:36.455Z,7.07
2022-11-27T17:13:40.570Z,7.13
2022-11-27T17:23:46.859Z,7.09
2022-11-27T17:33:56.797Z,6.96
2022-11-27T17:44:04.250Z,7.02
2022-11-27T17:54:08.020Z,6.91
2022-11-27T18:04:13.171Z,6.92
2022-11-27T18:14:17.000Z,6.90
2022-11-27T18:24:24.109Z,6.99
2022-11-27T18:34:28.341Z,6.78
2022-11-27T18:44:39.505Z,6.82
2022-11-27T18:54:46.823Z,6.84
2022-11-27T19:04:52.126Z,6.90
2022-11-27T19:14:55.884Z,6.88
2022-11-27T19:25:01.380Z,6.92
2022-11-27T19:35:07.300Z,6.92
2022-11-27T19:45:13.589Z,6.99
2022-11-27T19:55:17.584Z,6.96
2022-11-27T20:05:23.198Z,6.96
2022-11-27T20:15:26.925Z,6.96
2022-11-27T20:25:33.086Z,6.82
2022-11-27T20:35:36.943Z,6.94
2022-11-27T20:45:43.183Z,6.98
2022-11-27T20:55:47.754Z,6.94
2022-11-27T21:05:53.625Z,6.81
2022-11-27T21:15:57.428Z,6.85
2022-11-27T21:26:02.523Z,6.65
2022-11-27T21:36:09.673Z,6.79
2022-11-27T21:46:18.164Z,6.75
2022-11-27T21:56:24.124Z,6.63
2022-11-27T22:06:36.096Z,6.58
2022-11-27T22:16:45.302Z,6.63
2022-11-27T22:26:51.151Z,6.52
2022-11-27T22:36:56.880Z,6.57
2022-11-27T22:47:04.498Z,6.43
2022-11-27T22:57:08.209Z,6.36
2022-11-27T23:07:13.296Z,6.23
2022-11-27T23:17:17.058Z,6.20
2022-11-27T23:27:22.163Z,6.46
2022-11-27T23:37:25.859Z,6.23
2022-11-27T23:47:31.400Z,6.25
2022-11-27T23:57:35.157Z,6.10
